United States

Current Flights

Departures
Number Departure To Airline
Arrivals
Number Arrival From Airline
Info
Name: United States
Identifier:  QQF/KFIN
Local Time:  19. May 15:39
City
Flights per Day
2 flights
Punctuality
81% (0 flights per day delayed)
Delay Average: 26 minutes
Current Weather
 27 C (Humidity: 65%)
  0kt (0km/h / 0mph) from 0°
  Scattered clouds at 2,500 feet (762 meter)
  Broken clouds at 3,000 feet (914 meter)
  Broken clouds at 3,800 feet (1,158 meter)
  11km (7 mi.)
 METAR KFIN 191450Z 00000KT 7SM SCT025 BKN030 BKN038 27/20 A3007

Current Delays

Departures
N/A
Arrivals
N/A

Destinations

Top Destinations
Airport Flights
per week
Seats
per week
  Daytona Beach (DAB) 7 - 1 0
  Miami (OPF) <1 - 0 0
  Melbourne (MLB) <1 - 0 0
  Gainesville (GNV) <1 - 0 0
  Panama City (PAM) <1 - 0 0

Airlines & Planes

Top Airlines
Airline Flights
per Day
Seats
per Day
Jet Charter Inc ( Franklin Lakes Nj ) <1 -
  Flybe Nordic <1 -
Nordwind Airlines <1 -
  National Airlines <1 -
  Centennial Airlines <1 -
Top Plane Types
Manufacturer Model Flights Seats
Cessna C172 2.8/day - 0